sensor_id;sensor_type;location;lat;lon;timestamp;P1;durP1;ratioP1;P2;durP2;ratioP2
1164;SDS011;571;50.930;6.926;2023-02-26T03:45:43;6.20;;;1.93;;
1164;SDS011;571;50.930;6.926;2023-02-26T03:48:14;3.90;;;2.03;;
1164;SDS011;571;50.930;6.926;2023-02-26T03:50:46;5.77;;;2.73;;
1164;SDS011;571;50.930;6.926;2023-02-26T03:53:16;2.80;;;1.83;;
1164;SDS011;571;50.930;6.926;2023-02-26T03:55:49;3.33;;;3.00;;
1164;SDS011;571;50.930;6.926;2023-02-26T03:58:20;4.77;;;3.00;;
1164;SDS011;571;50.930;6.926;2023-02-26T04:00:49;4.70;;;2.53;;
1164;SDS011;571;50.930;6.926;2023-02-26T04:03:22;2.23;;;2.03;;
1164;SDS011;571;50.930;6.926;2023-02-26T04:05:54;8.07;;;2.20;;
1164;SDS011;571;50.930;6.926;2023-02-26T04:08:21;4.83;;;2.50;;
1164;SDS011;571;50.930;6.926;2023-02-26T04:10:50;3.70;;;1.83;;
1164;SDS011;571;50.930;6.926;2023-02-26T04:13:19;3.07;;;1.83;;
1164;SDS011;571;50.930;6.926;2023-02-26T04:15:46;3.60;;;2.27;;
1164;SDS011;571;50.930;6.926;2023-02-26T04:18:14;1.93;;;1.73;;
1164;SDS011;571;50.930;6.926;2023-02-26T04:20:41;6.47;;;2.30;;
1164;SDS011;571;50.930;6.926;2023-02-26T04:23:07;4.00;;;2.03;;
1164;SDS011;571;50.930;6.926;2023-02-26T04:25:34;4.10;;;1.97;;
1164;SDS011;571;50.930;6.926;2023-02-26T04:28:01;4.40;;;1.87;;
1164;SDS011;571;50.930;6.926;2023-02-26T04:30:28;3.90;;;1.40;;
1164;SDS011;571;50.930;6.926;2023-02-26T04:32:54;2.70;;;2.00;;
1164;SDS011;571;50.930;6.926;2023-02-26T04:35:22;3.70;;;1.70;;
1164;SDS011;571;50.930;6.926;2023-02-26T04:37:49;5.30;;;2.67;;
1164;SDS011;571;50.930;6.926;2023-02-26T04:40:16;3.53;;;1.50;;
1164;SDS011;571;50.930;6.926;2023-02-26T04:42:43;4.50;;;2.20;;
1164;SDS011;571;50.930;6.926;2023-02-26T04:45:09;8.50;;;2.40;;
1164;SDS011;571;50.930;6.926;2023-02-26T04:47:36;4.37;;;2.07;;
1164;SDS011;571;50.930;6.926;2023-02-26T04:50:03;3.37;;;1.80;;
1164;SDS011;571;50.930;6.926;2023-02-26T04:52:32;9.40;;;2.07;;
1164;SDS011;571;50.930;6.926;2023-02-26T04:54:58;1.90;;;1.80;;
1164;SDS011;571;50.930;6.926;2023-02-26T04:57:25;5.63;;;1.50;;
1164;SDS011;571;50.930;6.926;2023-02-26T04:59:52;2.17;;;1.97;;
1164;SDS011;571;50.930;6.926;2023-02-26T05:02:19;2.90;;;1.70;;
1164;SDS011;571;50.930;6.926;2023-02-26T05:04:45;4.77;;;2.17;;
1164;SDS011;571;50.930;6.926;2023-02-26T05:07:12;2.50;;;1.83;;
1164;SDS011;571;50.930;6.926;2023-02-26T05:09:40;2.57;;;1.70;;
1164;SDS011;571;50.930;6.926;2023-02-26T05:12:07;1.67;;;1.57;;
1164;SDS011;571;50.930;6.926;2023-02-26T05:14:33;5.13;;;2.23;;
1164;SDS011;571;50.930;6.926;2023-02-26T05:17:00;4.47;;;1.50;;
1164;SDS011;571;50.930;6.926;2023-02-26T05:19:27;3.67;;;2.17;;
1164;SDS011;571;50.930;6.926;2023-02-26T05:21:53;3.97;;;1.80;;
1164;SDS011;571;50.930;6.926;2023-02-26T05:24:20;1.90;;;1.70;;
1164;SDS011;571;50.930;6.926;2023-02-26T05:26:48;2.40;;;1.40;;
1164;SDS011;571;50.930;6.926;2023-02-26T05:29:15;6.20;;;2.10;;
1164;SDS011;571;50.930;6.926;2023-02-26T05:31:42;2.13;;;1.63;;
1164;SDS011;571;50.930;6.926;2023-02-26T05:34:08;4.20;;;1.70;;
1164;SDS011;571;50.930;6.926;2023-02-26T05:36:35;1.63;;;1.50;;
1164;SDS011;571;50.930;6.926;2023-02-26T05:39:02;5.20;;;1.80;;
1164;SDS011;571;50.930;6.926;2023-02-26T05:41:29;5.97;;;1.80;;
1164;SDS011;571;50.930;6.926;2023-02-26T05:43:57;4.37;;;1.97;;
1164;SDS011;571;50.930;6.926;2023-02-26T05:46:23;2.47;;;1.77;;
1164;SDS011;571;50.930;6.926;2023-02-26T05:48:50;2.43;;;2.07;;
1164;SDS011;571;50.930;6.926;2023-02-26T05:51:17;4.03;;;1.98;;
1164;SDS011;571;50.930;6.926;2023-02-26T05:53:43;3.67;;;1.80;;
1164;SDS011;571;50.930;6.926;2023-02-26T05:56:10;4.33;;;1.53;;
1164;SDS011;571;50.930;6.926;2023-02-26T05:58:37;3.03;;;2.07;;
1164;SDS011;571;50.930;6.926;2023-02-26T06:01:05;1.97;;;1.60;;
1164;SDS011;571;50.930;6.926;2023-02-26T06:03:32;1.40;;;1.30;;
1164;SDS011;571;50.930;6.926;2023-02-26T06:05:58;14.93;;;2.85;;
1164;SDS011;571;50.930;6.926;2023-02-26T06:08:25;2.40;;;1.77;;
1164;SDS011;571;50.930;6.926;2023-02-26T06:10:52;7.83;;;2.10;;
1164;SDS011;571;50.930;6.926;2023-02-26T06:13:19;3.13;;;1.67;;
1164;SDS011;571;50.930;6.926;2023-02-26T06:15:46;2.13;;;1.42;;
1164;SDS011;571;50.930;6.926;2023-02-26T06:18:17;2.15;;;1.88;;
1164;SDS011;571;50.930;6.926;2023-02-26T06:20:44;5.73;;;2.50;;
1164;SDS011;571;50.930;6.926;2023-02-26T06:23:10;2.43;;;1.80;;
1164;SDS011;571;50.930;6.926;2023-02-26T06:25:39;5.60;;;1.90;;
1164;SDS011;571;50.930;6.926;2023-02-26T06:28:05;3.17;;;2.20;;
1164;SDS011;571;50.930;6.926;2023-02-26T06:30:32;5.28;;;2.70;;
1164;SDS011;571;50.930;6.926;2023-02-26T06:32:59;9.70;;;2.40;;
1164;SDS011;571;50.930;6.926;2023-02-26T06:35:27;2.70;;;2.40;;
1164;SDS011;571;50.930;6.926;2023-02-26T06:37:54;8.53;;;3.30;;
1164;SDS011;571;50.930;6.926;2023-02-26T06:40:20;2.30;;;2.10;;
1164;SDS011;571;50.930;6.926;2023-02-26T06:42:47;3.53;;;2.43;;
1164;SDS011;571;50.930;6.926;2023-02-26T06:45:14;4.80;;;3.00;;
1164;SDS011;571;50.930;6.926;2023-02-26T06:47:41;4.38;;;3.00;;
1164;SDS011;571;50.930;6.926;2023-02-26T06:50:08;3.87;;;3.10;;
1164;SDS011;571;50.930;6.926;2023-02-26T06:52:37;3.90;;;2.88;;
1164;SDS011;571;50.930;6.926;2023-02-26T06:55:04;4.55;;;2.80;;
1164;SDS011;571;50.930;6.926;2023-02-26T06:57:31;5.40;;;3.00;;
1164;SDS011;571;50.930;6.926;2023-02-26T06:59:58;3.10;;;2.00;;
1164;SDS011;571;50.930;6.926;2023-02-26T07:02:25;6.33;;;2.63;;
1164;SDS011;571;50.930;6.926;2023-02-26T07:04:52;9.25;;;3.45;;
1164;SDS011;571;50.930;6.926;2023-02-26T07:07:19;4.60;;;2.30;;
1164;SDS011;571;50.930;6.926;2023-02-26T07:09:47;3.10;;;2.50;;
1164;SDS011;571;50.930;6.926;2023-02-26T07:12:14;7.43;;;3.40;;
1164;SDS011;571;50.930;6.926;2023-02-26T07:14:40;6.27;;;3.27;;
1164;SDS011;571;50.930;6.926;2023-02-26T07:17:09;4.80;;;2.73;;
1164;SDS011;571;50.930;6.926;2023-02-26T07:19:44;3.50;;;2.67;;
1164;SDS011;571;50.930;6.926;2023-02-26T07:22:11;4.30;;;2.50;;
1164;SDS011;571;50.930;6.926;2023-02-26T07:24:38;8.07;;;3.40;;
1164;SDS011;571;50.930;6.926;2023-02-26T07:27:06;6.10;;;3.23;;
1164;SDS011;571;50.930;6.926;2023-02-26T07:29:32;3.10;;;2.80;;
1164;SDS011;571;50.930;6.926;2023-02-26T07:31:59;3.30;;;2.60;;
1164;SDS011;571;50.930;6.926;2023-02-26T07:34:26;4.10;;;3.33;;
1164;SDS011;571;50.930;6.926;2023-02-26T07:36:53;5.10;;;3.13;;
1164;SDS011;571;50.930;6.926;2023-02-26T07:39:19;4.10;;;2.90;;
1164;SDS011;571;50.930;6.926;2023-02-26T07:41:46;3.30;;;2.70;;
1164;SDS011;571;50.930;6.926;2023-02-26T07:44:14;3.60;;;3.30;;
1164;SDS011;571;50.930;6.926;2023-02-26T07:46:41;5.17;;;3.20;;
1164;SDS011;571;50.930;6.926;2023-02-26T07:49:08;5.13;;;3.03;;
1164;SDS011;571;50.930;6.926;2023-02-26T07:51:34;3.73;;;3.20;;
1164;SDS011;571;50.930;6.926;2023-02-26T07:54:01;3.77;;;3.20;;
1164;SDS011;571;50.930;6.926;2023-02-26T07:56:28;5.13;;;3.23;;
1164;SDS011;571;50.930;6.926;2023-02-26T07:58:55;3.30;;;3.10;;
1164;SDS011;571;50.930;6.926;2023-02-26T08:01:23;4.40;;;2.57;;
1164;SDS011;571;50.930;6.926;2023-02-26T08:03:50;4.20;;;3.80;;
1164;SDS011;571;50.930;6.926;2023-02-26T08:06:17;3.40;;;2.80;;
1164;SDS011;571;50.930;6.926;2023-02-26T08:08:48;3.77;;;3.07;;
1164;SDS011;571;50.930;6.926;2023-02-26T08:11:50;4.70;;;3.10;;
1164;SDS011;571;50.930;6.926;2023-02-26T08:14:16;4.77;;;2.97;;
1164;SDS011;571;50.930;6.926;2023-02-26T08:16:44;4.10;;;2.70;;
1164;SDS011;571;50.930;6.926;2023-02-26T08:19:11;3.83;;;3.13;;
1164;SDS011;571;50.930;6.926;2023-02-26T08:21:38;3.93;;;3.17;;
1164;SDS011;571;50.930;6.926;2023-02-26T08:24:05;3.93;;;2.57;;
1164;SDS011;571;50.930;6.926;2023-02-26T08:26:33;2.90;;;2.70;;
1164;SDS011;571;50.930;6.926;2023-02-26T08:29:01;4.83;;;3.30;;
1164;SDS011;571;50.930;6.926;2023-02-26T08:31:28;4.13;;;3.40;;
1164;SDS011;571;50.930;6.926;2023-02-26T08:33:56;5.13;;;3.00;;
1164;SDS011;571;50.930;6.926;2023-02-26T08:36:23;4.13;;;3.20;;
1164;SDS011;571;50.930;6.926;2023-02-26T08:38:51;3.67;;;3.20;;
1164;SDS011;571;50.930;6.926;2023-02-26T08:41:17;2.93;;;2.63;;
1164;SDS011;571;50.930;6.926;2023-02-26T08:43:44;5.63;;;3.10;;
1164;SDS011;571;50.930;6.926;2023-02-26T08:46:11;2.60;;;2.40;;
1164;SDS011;571;50.930;6.926;2023-02-26T08:48:38;15.10;;;3.07;;
1164;SDS011;571;50.930;6.926;2023-02-26T08:51:06;2.97;;;2.77;;
1164;SDS011;571;50.930;6.926;2023-02-26T08:53:32;3.80;;;2.87;;
1164;SDS011;571;50.930;6.926;2023-02-26T08:55:59;6.97;;;3.40;;
1164;SDS011;571;50.930;6.926;2023-02-26T08:58:26;3.90;;;2.80;;
1164;SDS011;571;50.930;6.926;2023-02-26T09:00:53;4.27;;;3.07;;
1164;SDS011;571;50.930;6.926;2023-02-26T09:03:19;2.83;;;2.50;;
1164;SDS011;571;50.930;6.926;2023-02-26T09:05:46;4.03;;;3.23;;
1164;SDS011;571;50.930;6.926;2023-02-26T09:08:14;4.50;;;2.33;;
1164;SDS011;571;50.930;6.926;2023-02-26T09:10:41;3.07;;;2.83;;
1164;SDS011;571;50.930;6.926;2023-02-26T09:13:08;3.53;;;2.43;;
1164;SDS011;571;50.930;6.926;2023-02-26T09:15:35;3.13;;;2.33;;
1164;SDS011;571;50.930;6.926;2023-02-26T09:18:02;3.37;;;2.57;;
1164;SDS011;571;50.930;6.926;2023-02-26T09:20:28;3.60;;;1.70;;
1164;SDS011;571;50.930;6.926;2023-02-26T09:22:55;2.43;;;1.80;;
1164;SDS011;571;50.930;6.926;2023-02-26T09:25:23;6.23;;;1.97;;
1164;SDS011;571;50.930;6.926;2023-02-26T09:27:50;4.10;;;2.53;;
1164;SDS011;571;50.930;6.926;2023-02-26T09:30:17;3.50;;;2.50;;
1164;SDS011;571;50.930;6.926;2023-02-26T09:32:44;5.30;;;2.07;;
1164;SDS011;571;50.930;6.926;2023-02-26T09:35:17;3.40;;;1.47;;
1164;SDS011;571;50.930;6.926;2023-02-26T09:37:43;2.03;;;1.40;;
1164;SDS011;571;50.930;6.926;2023-02-26T09:40:10;2.60;;;2.07;;
1164;SDS011;571;50.930;6.926;2023-02-26T09:42:55;1.50;;;1.40;;
1164;SDS011;571;50.930;6.926;2023-02-26T09:45:30;1.90;;;1.20;;
1164;SDS011;571;50.930;6.926;2023-02-26T09:48:00;1.87;;;1.53;;
1164;SDS011;571;50.930;6.926;2023-02-26T09:50:33;1.67;;;1.30;;
1164;SDS011;571;50.930;6.926;2023-02-26T09:53:06;2.50;;;1.50;;
1164;SDS011;571;50.930;6.926;2023-02-26T09:55:39;1.90;;;1.80;;
1164;SDS011;571;50.930;6.926;2023-02-26T09:58:12;2.07;;;1.50;;
1164;SDS011;571;50.930;6.926;2023-02-26T10:00:46;2.83;;;1.53;;
1164;SDS011;571;50.930;6.926;2023-02-26T10:03:19;1.37;;;1.03;;
1164;SDS011;571;50.930;6.926;2023-02-26T10:05:58;4.93;;;1.30;;
1164;SDS011;571;50.930;6.926;2023-02-26T10:08:42;2.37;;;1.37;;
1164;SDS011;571;50.930;6.926;2023-02-26T10:11:13;1.63;;;1.20;;
1164;SDS011;571;50.930;6.926;2023-02-26T10:13:49;2.77;;;1.30;;
1164;SDS011;571;50.930;6.926;2023-02-26T10:16:20;2.17;;;1.63;;
1164;SDS011;571;50.930;6.926;2023-02-26T10:18:50;1.43;;;1.33;;
1164;SDS011;571;50.930;6.926;2023-02-26T10:21:21;1.77;;;1.63;;
1164;SDS011;571;50.930;6.926;2023-02-26T10:23:52;1.67;;;1.13;;
1164;SDS011;571;50.930;6.926;2023-02-26T10:26:21;3.70;;;1.03;;
1164;SDS011;571;50.930;6.926;2023-02-26T10:28:54;2.90;;;1.10;;
1164;SDS011;571;50.930;6.926;2023-02-26T10:31:25;1.80;;;1.50;;
1164;SDS011;571;50.930;6.926;2023-02-26T10:34:02;3.77;;;1.53;;
1164;SDS011;571;50.930;6.926;2023-02-26T10:36:38;1.70;;;1.07;;
1164;SDS011;571;50.930;6.926;2023-02-26T10:39:15;3.20;;;1.30;;
1164;SDS011;571;50.930;6.926;2023-02-26T10:41:48;3.07;;;1.30;;
1164;SDS011;571;50.930;6.926;2023-02-26T10:44:20;2.80;;;1.03;;
1164;SDS011;571;50.930;6.926;2023-02-26T10:46:55;3.43;;;1.30;;
1164;SDS011;571;50.930;6.926;2023-02-26T10:49:31;2.13;;;1.20;;
1164;SDS011;571;50.930;6.926;2023-02-26T10:52:12;3.27;;;1.00;;
1164;SDS011;571;50.930;6.926;2023-02-26T10:54:44;2.13;;;1.20;;
1164;SDS011;571;50.930;6.926;2023-02-26T10:57:18;4.30;;;1.40;;
1164;SDS011;571;50.930;6.926;2023-02-26T10:59:50;1.50;;;1.40;;
1164;SDS011;571;50.930;6.926;2023-02-26T11:02:26;2.63;;;1.37;;
1164;SDS011;571;50.930;6.926;2023-02-26T11:05:02;2.30;;;1.30;;
1164;SDS011;571;50.930;6.926;2023-02-26T11:07:30;2.10;;;1.13;;
1164;SDS011;571;50.930;6.926;2023-02-26T11:09:58;1.80;;;0.90;;
1164;SDS011;571;50.930;6.926;2023-02-26T11:12:27;2.20;;;1.27;;
1164;SDS011;571;50.930;6.926;2023-02-26T11:14:55;6.33;;;1.27;;
1164;SDS011;571;50.930;6.926;2023-02-26T11:17:23;1.63;;;0.90;;
1164;SDS011;571;50.930;6.926;2023-02-26T11:19:54;1.37;;;1.27;;
1164;SDS011;571;50.930;6.926;2023-02-26T11:22:24;1.00;;;0.90;;
1164;SDS011;571;50.930;6.926;2023-02-26T11:24:52;1.13;;;1.03;;
1164;SDS011;571;50.930;6.926;2023-02-26T11:27:23;1.40;;;1.30;;
1164;SDS011;571;50.930;6.926;2023-02-26T11:29:52;1.93;;;1.30;;
1164;SDS011;571;50.930;6.926;2023-02-26T11:32:29;1.20;;;1.10;;
1164;SDS011;571;50.930;6.926;2023-02-26T11:34:57;3.83;;;1.30;;
1164;SDS011;571;50.930;6.926;2023-02-26T11:37:26;3.60;;;1.30;;
1164;SDS011;571;50.930;6.926;2023-02-26T11:39:55;1.10;;;1.00;;
1164;SDS011;571;50.930;6.926;2023-02-26T11:42:24;0.80;;;0.80;;
1164;SDS011;571;50.930;6.926;2023-02-26T11:44:51;4.00;;;1.00;;
1164;SDS011;571;50.930;6.926;2023-02-26T11:47:20;1.03;;;0.83;;
1164;SDS011;571;50.930;6.926;2023-02-26T11:49:51;1.10;;;0.80;;
1164;SDS011;571;50.930;6.926;2023-02-26T11:52:27;1.40;;;1.10;;
1164;SDS011;571;50.930;6.926;2023-02-26T11:54:59;0.60;;;0.50;;
1164;SDS011;571;50.930;6.926;2023-02-26T11:57:29;2.27;;;0.90;;
1164;SDS011;571;50.930;6.926;2023-02-26T12:00:02;1.13;;;0.60;;
1164;SDS011;571;50.930;6.926;2023-02-26T12:02:57;1.00;;;0.90;;
1164;SDS011;571;50.930;6.926;2023-02-26T12:05:33;1.73;;;1.13;;
1164;SDS011;571;50.930;6.926;2023-02-26T12:08:02;1.90;;;0.90;;
1164;SDS011;571;50.930;6.926;2023-02-26T12:10:41;1.67;;;1.20;;
1164;SDS011;571;50.930;6.926;2023-02-26T12:13:18;1.63;;;1.10;;
1164;SDS011;571;50.930;6.926;2023-02-26T12:15:58;2.60;;;1.20;;
1164;SDS011;571;50.930;6.926;2023-02-26T12:18:45;1.00;;;0.90;;
1164;SDS011;571;50.930;6.926;2023-02-26T12:24:29;2.83;;;0.90;;
1164;SDS011;571;50.930;6.926;2023-02-26T12:27:14;3.73;;;1.20;;
1164;SDS011;571;50.930;6.926;2023-02-26T12:29:58;1.17;;;0.90;;
1164;SDS011;571;50.930;6.926;2023-02-26T12:32:58;1.10;;;1.00;;
1164;SDS011;571;50.930;6.926;2023-02-26T12:35:43;3.80;;;1.23;;
1164;SDS011;571;50.930;6.926;2023-02-26T12:38:29;1.20;;;0.90;;
1164;SDS011;571;50.930;6.926;2023-02-26T12:44:06;1.10;;;1.00;;
1164;SDS011;571;50.930;6.926;2023-02-26T12:46:57;3.10;;;1.07;;
1164;SDS011;571;50.930;6.926;2023-02-26T12:49:50;2.73;;;0.70;;
1164;SDS011;571;50.930;6.926;2023-02-26T12:59:05;2.77;;;1.00;;
1164;SDS011;571;50.930;6.926;2023-02-26T13:04:37;1.73;;;0.80;;
1164;SDS011;571;50.930;6.926;2023-02-26T13:07:21;2.70;;;0.97;;
1164;SDS011;571;50.930;6.926;2023-02-26T13:10:15;1.97;;;0.80;;
1164;SDS011;571;50.930;6.926;2023-02-26T13:12:56;3.07;;;1.20;;
1164;SDS011;571;50.930;6.926;2023-02-26T13:15:49;2.67;;;0.83;;
1164;SDS011;571;50.930;6.926;2023-02-26T13:18:28;2.20;;;1.10;;
1164;SDS011;571;50.930;6.926;2023-02-26T13:21:02;0.90;;;0.90;;
1164;SDS011;571;50.930;6.926;2023-02-26T13:23:35;1.17;;;0.80;;
1164;SDS011;571;50.930;6.926;2023-02-26T13:26:09;1.40;;;0.90;;
1164;SDS011;571;50.930;6.926;2023-02-26T13:28:49;2.30;;;1.10;;
1164;SDS011;571;50.930;6.926;2023-02-26T13:31:21;1.07;;;0.87;;
1164;SDS011;571;50.930;6.926;2023-02-26T13:33:51;3.13;;;1.03;;
1164;SDS011;571;50.930;6.926;2023-02-26T13:36:24;0.73;;;0.60;;
1164;SDS011;571;50.930;6.926;2023-02-26T13:38:56;1.50;;;1.10;;
1164;SDS011;571;50.930;6.926;2023-02-26T13:41:39;2.23;;;1.10;;
1164;SDS011;571;50.930;6.926;2023-02-26T13:44:24;2.13;;;0.77;;
1164;SDS011;571;50.930;6.926;2023-02-26T13:50:00;1.63;;;0.90;;
1164;SDS011;571;50.930;6.926;2023-02-26T13:52:49;1.53;;;0.80;;
1164;SDS011;571;50.930;6.926;2023-02-26T13:58:24;1.23;;;0.77;;
1164;SDS011;571;50.930;6.926;2023-02-26T14:01:02;2.33;;;0.70;;
1164;SDS011;571;50.930;6.926;2023-02-26T14:03:33;2.10;;;0.90;;
1164;SDS011;571;50.930;6.926;2023-02-26T14:06:09;3.03;;;1.03;;
1164;SDS011;571;50.930;6.926;2023-02-26T14:08:50;1.93;;;1.00;;
1164;SDS011;571;50.930;6.926;2023-02-26T14:11:24;1.43;;;0.90;;
1164;SDS011;571;50.930;6.926;2023-02-26T14:14:21;1.57;;;1.20;;
1164;SDS011;571;50.930;6.926;2023-02-26T14:17:16;4.67;;;1.00;;
1164;SDS011;571;50.930;6.926;2023-02-26T14:20:11;1.33;;;1.00;;
1164;SDS011;571;50.930;6.926;2023-02-26T14:22:50;1.17;;;0.90;;
1164;SDS011;571;50.930;6.926;2023-02-26T14:25:37;1.40;;;1.10;;
1164;SDS011;571;50.930;6.926;2023-02-26T14:28:19;5.23;;;0.83;;
1164;SDS011;571;50.930;6.926;2023-02-26T14:31:13;1.93;;;1.00;;
1164;SDS011;571;50.930;6.926;2023-02-26T14:33:44;1.53;;;0.63;;
1164;SDS011;571;50.930;6.926;2023-02-26T14:36:19;1.77;;;1.17;;
1164;SDS011;571;50.930;6.926;2023-02-26T14:38:52;2.27;;;1.00;;
1164;SDS011;571;50.930;6.926;2023-02-26T14:41:28;3.63;;;0.97;;
1164;SDS011;571;50.930;6.926;2023-02-26T14:44:01;1.43;;;0.90;;
1164;SDS011;571;50.930;6.926;2023-02-26T14:46:32;1.27;;;0.90;;
1164;SDS011;571;50.930;6.926;2023-02-26T14:49:00;1.40;;;1.30;;
1164;SDS011;571;50.930;6.926;2023-02-26T14:51:32;2.63;;;1.47;;
1164;SDS011;571;50.930;6.926;2023-02-26T14:57:06;1.60;;;0.87;;
1164;SDS011;571;50.930;6.926;2023-02-26T14:59:50;1.80;;;1.10;;
1164;SDS011;571;50.930;6.926;2023-02-26T15:02:29;4.50;;;1.23;;
1164;SDS011;571;50.930;6.926;2023-02-26T15:08:17;1.97;;;0.90;;
1164;SDS011;571;50.930;6.926;2023-02-26T15:11:03;0.80;;;0.80;;
1164;SDS011;571;50.930;6.926;2023-02-26T15:13:57;0.97;;;0.77;;
1164;SDS011;571;50.930;6.926;2023-02-26T15:16:43;1.87;;;1.20;;
1164;SDS011;571;50.930;6.926;2023-02-26T15:19:23;2.10;;;1.00;;
1164;SDS011;571;50.930;6.926;2023-02-26T15:22:08;1.07;;;0.73;;
1164;SDS011;571;50.930;6.926;2023-02-26T15:24:54;1.80;;;1.10;;
1164;SDS011;571;50.930;6.926;2023-02-26T15:27:21;1.00;;;0.93;;
1164;SDS011;571;50.930;6.926;2023-02-26T15:29:48;1.27;;;1.10;;
1164;SDS011;571;50.930;6.926;2023-02-26T15:32:20;2.33;;;0.80;;
1164;SDS011;571;50.930;6.926;2023-02-26T15:34:53;1.43;;;1.07;;
1164;SDS011;571;50.930;6.926;2023-02-26T15:37:24;1.10;;;1.00;;
1164;SDS011;571;50.930;6.926;2023-02-26T15:39:55;1.87;;;1.13;;
1164;SDS011;571;50.930;6.926;2023-02-26T15:42:24;2.67;;;1.10;;
1164;SDS011;571;50.930;6.926;2023-02-26T15:44:56;2.40;;;1.67;;
1164;SDS011;571;50.930;6.926;2023-02-26T15:47:25;1.33;;;0.90;;
1164;SDS011;571;50.930;6.926;2023-02-26T15:49:53;2.30;;;0.90;;
1164;SDS011;571;50.930;6.926;2023-02-26T15:52:22;1.87;;;1.10;;
1164;SDS011;571;50.930;6.926;2023-02-26T15:54:52;3.17;;;1.60;;
1164;SDS011;571;50.930;6.926;2023-02-26T15:57:23;1.83;;;1.00;;
1164;SDS011;571;50.930;6.926;2023-02-26T15:59:52;2.43;;;1.43;;
1164;SDS011;571;50.930;6.926;2023-02-26T16:02:26;2.00;;;1.10;;
1164;SDS011;571;50.930;6.926;2023-02-26T16:04:55;1.50;;;1.30;;
1164;SDS011;571;50.930;6.926;2023-02-26T16:07:22;1.57;;;1.03;;
1164;SDS011;571;50.930;6.926;2023-02-26T16:09:52;1.20;;;0.80;;
1164;SDS011;571;50.930;6.926;2023-02-26T16:12:20;2.07;;;1.40;;
1164;SDS011;571;50.930;6.926;2023-02-26T16:14:50;1.43;;;0.90;;
1164;SDS011;571;50.930;6.926;2023-02-26T16:17:23;1.70;;;1.10;;
1164;SDS011;571;50.930;6.926;2023-02-26T16:19:52;1.93;;;1.00;;
1164;SDS011;571;50.930;6.926;2023-02-26T16:22:23;1.53;;;1.43;;
1164;SDS011;571;50.930;6.926;2023-02-26T16:24:54;2.53;;;1.40;;
1164;SDS011;571;50.930;6.926;2023-02-26T16:27:27;2.00;;;1.20;;
1164;SDS011;571;50.930;6.926;2023-02-26T16:29:56;2.00;;;1.27;;
1164;SDS011;571;50.930;6.926;2023-02-26T16:32:27;2.77;;;2.57;;
1164;SDS011;571;50.930;6.926;2023-02-26T16:34:56;1.67;;;0.93;;
1164;SDS011;571;50.930;6.926;2023-02-26T16:37:26;1.73;;;1.10;;
1164;SDS011;571;50.930;6.926;2023-02-26T16:40:16;1.23;;;1.00;;
1164;SDS011;571;50.930;6.926;2023-02-26T16:42:50;1.90;;;1.20;;
1164;SDS011;571;50.930;6.926;2023-02-26T16:45:22;1.30;;;1.20;;
1164;SDS011;571;50.930;6.926;2023-02-26T16:48:10;3.03;;;1.20;;
1164;SDS011;571;50.930;6.926;2023-02-26T16:50:40;1.77;;;1.00;;
1164;SDS011;571;50.930;6.926;2023-02-26T16:53:08;3.43;;;1.50;;
1164;SDS011;571;50.930;6.926;2023-02-26T16:55:40;1.53;;;1.30;;
1164;SDS011;571;50.930;6.926;2023-02-26T16:58:13;2.10;;;1.10;;
1164;SDS011;571;50.930;6.926;2023-02-26T17:00:42;1.30;;;1.20;;
1164;SDS011;571;50.930;6.926;2023-02-26T17:03:10;2.40;;;1.30;;
1164;SDS011;571;50.930;6.926;2023-02-26T17:05:41;1.93;;;1.50;;
1164;SDS011;571;50.930;6.926;2023-02-26T17:08:21;4.63;;;1.53;;
1164;SDS011;571;50.930;6.926;2023-02-26T17:10:53;2.60;;;1.60;;
1164;SDS011;571;50.930;6.926;2023-02-26T17:13:27;1.40;;;1.30;;
1164;SDS011;571;50.930;6.926;2023-02-26T17:15:57;2.13;;;1.17;;
1164;SDS011;571;50.930;6.926;2023-02-26T17:18:24;4.03;;;1.63;;
1164;SDS011;571;50.930;6.926;2023-02-26T17:20:51;2.07;;;1.30;;
1164;SDS011;571;50.930;6.926;2023-02-26T17:23:18;2.47;;;1.33;;
1164;SDS011;571;50.930;6.926;2023-02-26T17:25:50;2.30;;;1.57;;
1164;SDS011;571;50.930;6.926;2023-02-26T17:28:20;2.10;;;1.40;;
1164;SDS011;571;50.930;6.926;2023-02-26T17:30:50;1.50;;;1.20;;
1164;SDS011;571;50.930;6.926;2023-02-26T17:33:17;6.23;;;1.73;;
1164;SDS011;571;50.930;6.926;2023-02-26T17:35:44;2.03;;;1.83;;
1164;SDS011;571;50.930;6.926;2023-02-26T17:38:12;2.70;;;1.57;;
1164;SDS011;571;50.930;6.926;2023-02-26T17:40:40;1.77;;;1.30;;
1164;SDS011;571;50.930;6.926;2023-02-26T17:43:09;2.13;;;1.20;;
1164;SDS011;571;50.930;6.926;2023-02-26T17:45:36;1.93;;;1.47;;
1164;SDS011;571;50.930;6.926;2023-02-26T17:48:06;3.00;;;2.03;;
1164;SDS011;571;50.930;6.926;2023-02-26T17:50:34;4.60;;;1.93;;
1164;SDS011;571;50.930;6.926;2023-02-26T17:53:07;3.33;;;2.00;;
1164;SDS011;571;50.930;6.926;2023-02-26T17:55:35;3.27;;;2.50;;
1164;SDS011;571;50.930;6.926;2023-02-26T17:58:04;2.00;;;1.70;;
1164;SDS011;571;50.930;6.926;2023-02-26T18:00:31;5.53;;;1.90;;
1164;SDS011;571;50.930;6.926;2023-02-26T18:03:03;2.10;;;1.83;;
1164;SDS011;571;50.930;6.926;2023-02-26T18:05:31;2.97;;;1.90;;
1164;SDS011;571;50.930;6.926;2023-02-26T18:08:03;3.87;;;1.90;;
1164;SDS011;571;50.930;6.926;2023-02-26T18:10:30;2.43;;;2.20;;
1164;SDS011;571;50.930;6.926;2023-02-26T18:12:57;4.00;;;2.27;;
1164;SDS011;571;50.930;6.926;2023-02-26T18:15:24;3.30;;;2.10;;
1164;SDS011;571;50.930;6.926;2023-02-26T18:17:51;7.83;;;3.03;;
1164;SDS011;571;50.930;6.926;2023-02-26T18:20:19;20.33;;;2.73;;
1164;SDS011;571;50.930;6.926;2023-02-26T18:22:48;3.07;;;2.37;;
1164;SDS011;571;50.930;6.926;2023-02-26T18:25:15;5.63;;;2.80;;
1164;SDS011;571;50.930;6.926;2023-02-26T18:27:42;2.77;;;2.53;;
1164;SDS011;571;50.930;6.926;2023-02-26T18:30:13;2.60;;;1.90;;
1164;SDS011;571;50.930;6.926;2023-02-26T18:32:46;3.87;;;2.50;;
1164;SDS011;571;50.930;6.926;2023-02-26T18:35:12;3.30;;;3.00;;
1164;SDS011;571;50.930;6.926;2023-02-26T18:37:41;3.20;;;2.50;;
1164;SDS011;571;50.930;6.926;2023-02-26T18:40:11;3.13;;;2.73;;
1164;SDS011;571;50.930;6.926;2023-02-26T18:42:39;3.30;;;2.50;;
1164;SDS011;571;50.930;6.926;2023-02-26T18:45:07;5.13;;;2.77;;
1164;SDS011;571;50.930;6.926;2023-02-26T18:47:35;5.00;;;3.53;;
1164;SDS011;571;50.930;6.926;2023-02-26T18:50:01;4.00;;;2.60;;
1164;SDS011;571;50.930;6.926;2023-02-26T18:52:29;3.37;;;2.60;;
1164;SDS011;571;50.930;6.926;2023-02-26T18:54:56;5.23;;;3.00;;
1164;SDS011;571;50.930;6.926;2023-02-26T18:57:24;5.70;;;2.93;;
1164;SDS011;571;50.930;6.926;2023-02-26T18:59:50;2.83;;;2.60;;
1164;SDS011;571;50.930;6.926;2023-02-26T19:02:17;3.63;;;2.67;;
1164;SDS011;571;50.930;6.926;2023-02-26T19:04:44;3.87;;;2.63;;
1164;SDS011;571;50.930;6.926;2023-02-26T19:07:10;3.43;;;3.10;;
1164;SDS011;571;50.930;6.926;2023-02-26T19:09:37;3.60;;;3.10;;
1164;SDS011;571;50.930;6.926;2023-02-26T19:12:04;7.60;;;3.00;;
1164;SDS011;571;50.930;6.926;2023-02-26T19:14:33;4.53;;;2.90;;
1164;SDS011;571;50.930;6.926;2023-02-26T19:17:00;3.27;;;2.30;;
1164;SDS011;571;50.930;6.926;2023-02-26T19:19:27;3.73;;;3.10;;
1164;SDS011;571;50.930;6.926;2023-02-26T19:21:53;5.37;;;4.00;;
1164;SDS011;571;50.930;6.926;2023-02-26T19:24:21;4.00;;;3.10;;
1164;SDS011;571;50.930;6.926;2023-02-26T19:26:48;6.57;;;3.00;;
1164;SDS011;571;50.930;6.926;2023-02-26T19:29:16;5.50;;;3.47;;
1164;SDS011;571;50.930;6.926;2023-02-26T19:31:45;6.10;;;3.50;;
1164;SDS011;571;50.930;6.926;2023-02-26T19:34:12;6.63;;;3.97;;
1164;SDS011;571;50.930;6.926;2023-02-26T19:36:39;5.10;;;3.33;;
1164;SDS011;571;50.930;6.926;2023-02-26T19:39:12;6.10;;;3.10;;
1164;SDS011;571;50.930;6.926;2023-02-26T19:41:40;4.17;;;2.43;;
1164;SDS011;571;50.930;6.926;2023-02-26T19:44:07;6.43;;;3.13;;
1164;SDS011;571;50.930;6.926;2023-02-26T19:46:34;3.37;;;2.87;;
1164;SDS011;571;50.930;6.926;2023-02-26T19:49:02;4.70;;;4.20;;
1164;SDS011;571;50.930;6.926;2023-02-26T19:51:29;5.57;;;3.70;;
1164;SDS011;571;50.930;6.926;2023-02-26T19:53:55;7.20;;;5.17;;
1164;SDS011;571;50.930;6.926;2023-02-26T19:56:22;4.93;;;3.47;;
1164;SDS011;571;50.930;6.926;2023-02-26T19:58:49;4.40;;;3.60;;
1164;SDS011;571;50.930;6.926;2023-02-26T20:01:16;6.57;;;2.80;;
1164;SDS011;571;50.930;6.926;2023-02-26T20:03:42;5.00;;;3.50;;
1164;SDS011;571;50.930;6.926;2023-02-26T20:06:10;4.57;;;2.87;;